Time;durP1;ratioP1;P1;durP2;ratioP2;P2;SDS_P1;SDS_P2;PMS_P1;PMS_P2;Temp;Humidity;BMP_temperature;BMP_pressure;BME280_temperature;BME280_humidity;BME280_pressure;Samples;Min_cycle;Max_cycle;Signal;HPM_P1;HPM_P2
2023/07/22 00:02:22;;;;;;;12.07;2.42;;;17.60;99.90;;;;;;4988814;28;20034;-85
2023/07/22 00:04:48;;;;;;;6.25;2.42;;;17.60;99.90;;;;;;4990580;28;20026;-87
2023/07/22 00:07:15;;;;;;;4.00;2.13;;;17.50;99.90;;;;;;4989226;28;20027;-83
2023/07/22 00:09:41;;;;;;;3.63;2.35;;;17.50;99.90;;;;;;4990174;28;20027;-84
2023/07/22 00:12:08;;;;;;;5.38;2.42;;;17.50;99.90;;;;;;4988901;28;20053;-87
2023/07/22 00:14:36;;;;;;;4.00;2.03;;;17.40;99.90;;;;;;4990096;28;20081;-84
2023/07/22 00:17:01;;;;;;;5.00;1.90;;;17.40;99.90;;;;;;4989534;28;20034;-84
2023/07/22 00:19:27;;;;;;;3.83;2.53;;;17.40;99.90;;;;;;4989993;28;20098;-84
2023/07/22 00:21:52;;;;;;;8.95;1.98;;;17.40;99.90;;;;;;4989569;28;20026;-82
2023/07/22 00:24:18;;;;;;;5.97;2.13;;;17.40;99.90;;;;;;4989801;28;20043;-87
2023/07/22 00:26:44;;;;;;;5.03;2.50;;;17.40;99.90;;;;;;4990124;28;20033;-86
2023/07/22 00:29:10;;;;;;;7.90;2.53;;;17.40;99.90;;;;;;4989249;28;20099;-86
2023/07/22 00:31:35;;;;;;;6.35;2.63;;;17.40;99.90;;;;;;4989336;28;20046;-86
2023/07/22 00:34:01;;;;;;;6.40;2.45;;;17.30;99.90;;;;;;4988922;28;20431;-86
2023/07/22 00:36:26;;;;;;;7.22;2.75;;;17.40;99.90;;;;;;4988448;28;20037;-83
2023/07/22 00:38:55;;;;;;;7.22;2.75;;;17.30;99.90;;;;;;4988296;28;20521;-86
2023/07/22 00:41:20;;;;;;;4.60;2.60;;;17.30;99.90;;;;;;4989599;28;20054;-85
2023/07/22 00:43:46;;;;;;;5.68;2.60;;;17.30;99.90;;;;;;4990129;28;20097;-86
2023/07/22 00:46:12;;;;;;;4.82;2.67;;;17.30;99.90;;;;;;4987959;28;20026;-84
2023/07/22 00:48:38;;;;;;;8.68;3.38;;;17.30;99.90;;;;;;4989314;28;20023;-86
2023/07/22 00:51:05;;;;;;;6.90;2.78;;;17.30;99.90;;;;;;4988161;28;20038;-86
2023/07/22 00:53:30;;;;;;;3.60;2.40;;;17.30;99.90;;;;;;4989322;28;20018;-84
2023/07/22 00:55:56;;;;;;;7.07;2.92;;;17.20;99.90;;;;;;4988346;28;20037;-87
2023/07/22 00:58:22;;;;;;;7.32;2.75;;;17.20;99.90;;;;;;4989513;28;20448;-86
2023/07/22 01:00:48;;;;;;;11.48;2.97;;;17.20;99.90;;;;;;4989608;28;20437;-87
2023/07/22 01:03:14;;;;;;;6.38;3.15;;;17.20;99.90;;;;;;4988463;28;20072;-86
2023/07/22 01:05:41;;;;;;;5.85;2.97;;;17.20;99.90;;;;;;4987875;28;20046;-87
2023/07/22 01:08:07;;;;;;;7.40;3.25;;;17.20;99.90;;;;;;4988162;28;20084;-85
2023/07/22 01:10:33;;;;;;;4.93;2.63;;;17.10;99.90;;;;;;4989111;28;20129;-87
2023/07/22 01:12:58;;;;;;;4.07;2.40;;;17.10;99.90;;;;;;4988980;28;20156;-87
2023/07/22 01:15:25;;;;;;;9.63;2.60;;;17.10;99.90;;;;;;4989394;28;20040;-84
2023/07/22 01:17:52;;;;;;;5.47;2.67;;;17.00;99.90;;;;;;4989223;28;20475;-84
2023/07/22 01:20:19;;;;;;;4.07;2.05;;;17.00;99.90;;;;;;4988214;28;20041;-86
2023/07/22 01:22:52;;;;;;;6.53;2.80;;;17.00;99.90;;;;;;4988023;28;20030;-85
2023/07/22 01:25:20;;;;;;;8.35;2.95;;;17.10;99.90;;;;;;4989067;28;20034;-84
2023/07/22 01:27:47;;;;;;;4.13;2.45;;;17.00;99.90;;;;;;4988553;28;20022;-84
2023/07/22 01:30:14;;;;;;;11.65;2.42;;;17.00;99.90;;;;;;4986941;28;20037;-82
2023/07/22 01:32:40;;;;;;;5.00;2.55;;;17.10;99.90;;;;;;4988572;28;20041;-83
2023/07/22 01:35:07;;;;;;;5.72;2.60;;;17.10;99.90;;;;;;4987530;28;20068;-85
2023/07/22 01:37:33;;;;;;;3.45;2.30;;;17.10;99.90;;;;;;4988425;28;20026;-84
2023/07/22 01:39:59;;;;;;;7.82;2.72;;;17.10;99.90;;;;;;4988239;28;20026;-86
2023/07/22 01:42:25;;;;;;;4.82;2.60;;;17.10;99.90;;;;;;4988772;28;20106;-84
2023/07/22 01:44:52;;;;;;;10.32;2.55;;;17.10;99.90;;;;;;4989132;28;20568;-84
2023/07/22 01:47:18;;;;;;;5.50;2.55;;;17.10;99.90;;;;;;4988751;28;20564;-84
2023/07/22 01:49:44;;;;;;;9.23;2.35;;;17.10;99.90;;;;;;4989005;28;20039;-85
2023/07/22 01:52:10;;;;;;;8.40;2.40;;;17.00;99.90;;;;;;4988737;28;20110;-86
2023/07/22 01:54:36;;;;;;;5.18;2.45;;;17.10;99.90;;;;;;4987765;28;20086;-86
2023/07/22 01:57:01;;;;;;;8.85;2.65;;;17.10;99.90;;;;;;4988465;28;20079;-86
2023/07/22 01:59:27;;;;;;;5.40;2.42;;;17.10;99.90;;;;;;4987721;28;20030;-87
2023/07/22 02:01:53;;;;;;;5.32;2.63;;;17.10;99.90;;;;;;4988473;28;20022;-87
2023/07/22 02:04:18;;;;;;;9.40;3.17;;;17.10;99.90;;;;;;4989349;28;20065;-85
2023/07/22 02:06:44;;;;;;;8.02;2.78;;;17.10;99.90;;;;;;4988943;28;20544;-88
2023/07/22 02:09:13;;;;;;;5.35;2.45;;;17.10;99.90;;;;;;4987831;28;20026;-87
2023/07/22 02:11:39;;;;;;;4.38;2.25;;;17.00;99.90;;;;;;4989445;28;20477;-87
2023/07/22 02:14:06;;;;;;;4.78;3.00;;;17.00;99.90;;;;;;4988201;28;20080;-87
2023/07/22 02:16:38;;;;;;;4.20;2.70;;;17.00;99.90;;;;;;4988213;28;20057;-86
2023/07/22 02:19:04;;;;;;;8.80;2.65;;;17.00;99.90;;;;;;4987890;28;20406;-85
2023/07/22 02:21:30;;;;;;;13.38;2.60;;;17.00;99.90;;;;;;4989000;28;20038;-86
2023/07/22 02:23:56;;;;;;;13.70;2.63;;;16.90;99.90;;;;;;4988703;28;20101;-85
2023/07/22 02:26:21;;;;;;;10.30;3.53;;;16.90;99.90;;;;;;4988850;28;20077;-86
2023/07/22 02:28:48;;;;;;;6.93;2.78;;;16.90;99.90;;;;;;4987566;28;20608;-86
2023/07/22 02:31:13;;;;;;;8.48;2.60;;;16.80;99.90;;;;;;4987087;28;20513;-86
2023/07/22 02:33:39;;;;;;;9.35;2.83;;;16.80;99.90;;;;;;4987112;28;20041;-86
2023/07/22 02:36:04;;;;;;;6.38;2.60;;;16.80;99.90;;;;;;4987656;28;20022;-87
2023/07/22 02:38:30;;;;;;;11.82;3.28;;;16.80;99.90;;;;;;4988555;28;20081;-86
2023/07/22 02:41:06;;;;;;;6.78;2.63;;;16.70;99.90;;;;;;4989166;28;20050;-86
2023/07/22 02:43:32;;;;;;;13.57;3.40;;;16.70;99.90;;;;;;4988317;28;20022;-86
2023/07/22 02:46:03;;;;;;;7.07;2.75;;;16.70;99.90;;;;;;4987046;28;20034;-86
2023/07/22 02:48:31;;;;;;;7.75;2.95;;;16.70;99.90;;;;;;4987375;28;20578;-87
2023/07/22 02:51:05;;;;;;;17.50;3.83;;;16.70;99.90;;;;;;4988743;28;20058;-87
2023/07/22 02:53:32;;;;;;;9.30;3.28;;;16.60;99.90;;;;;;4990118;28;20034;-85
2023/07/22 02:55:58;;;;;;;9.48;3.08;;;16.60;99.90;;;;;;4991284;28;20099;-86
2023/07/22 02:58:24;;;;;;;4.90;2.78;;;16.60;99.90;;;;;;4990294;28;20394;-85
2023/07/22 03:00:50;;;;;;;4.85;2.45;;;16.60;99.90;;;;;;4991109;28;20523;-84
2023/07/22 03:03:16;;;;;;;5.78;2.60;;;16.60;99.90;;;;;;4990871;28;20031;-83
2023/07/22 03:05:41;;;;;;;7.53;2.78;;;16.60;99.90;;;;;;4991086;28;20117;-85
2023/07/22 03:08:07;;;;;;;4.45;2.58;;;16.60;99.90;;;;;;4992062;28;20105;-84
2023/07/22 03:10:33;;;;;;;10.23;3.47;;;16.60;99.90;;;;;;4991685;28;20482;-85
2023/07/22 03:12:59;;;;;;;10.35;3.80;;;16.70;99.90;;;;;;4991682;28;20026;-82
2023/07/22 03:15:28;;;;;;;11.05;2.90;;;16.70;99.90;;;;;;4991235;28;20742;-86
2023/07/22 03:17:55;;;;;;;6.50;3.13;;;16.70;99.90;;;;;;4989982;28;20401;-84
2023/07/22 03:20:23;;;;;;;8.25;3.30;;;16.70;99.90;;;;;;4990831;28;20026;-83
2023/07/22 03:22:49;;;;;;;11.88;3.20;;;16.70;99.90;;;;;;4990474;28;20026;-86
2023/07/22 03:25:16;;;;;;;5.55;2.85;;;16.80;99.90;;;;;;4991939;28;20368;-86
2023/07/22 03:27:43;;;;;;;11.88;2.75;;;16.80;99.90;;;;;;4992634;28;20030;-87
2023/07/22 03:30:15;;;;;;;8.18;2.95;;;16.90;99.90;;;;;;4991629;28;20026;-87
2023/07/22 03:32:42;;;;;;;5.32;2.85;;;16.90;99.90;;;;;;4992001;28;20042;-86
2023/07/22 03:35:10;;;;;;;5.03;2.63;;;17.00;99.90;;;;;;4992739;28;20014;-87
2023/07/22 03:37:36;;;;;;;9.88;3.42;;;17.00;99.90;;;;;;4991467;28;20030;-84
2023/07/22 03:40:06;;;;;;;8.13;5.15;;;17.10;99.90;;;;;;4991903;28;20027;-86
2023/07/22 03:42:33;;;;;;;12.32;6.60;;;17.10;99.90;;;;;;4990582;28;20529;-84
2023/07/22 03:44:59;;;;;;;11.95;5.88;;;17.10;99.90;;;;;;4990730;28;20037;-85
2023/07/22 03:47:25;;;;;;;8.73;5.68;;;17.20;99.90;;;;;;4991702;28;20026;-84
2023/07/22 03:49:50;;;;;;;6.00;3.67;;;17.30;99.90;;;;;;4991631;28;20038;-84
2023/07/22 03:52:18;;;;;;;5.32;3.63;;;17.30;99.90;;;;;;4990172;28;20034;-84
2023/07/22 03:54:44;;;;;;;7.05;3.72;;;17.40;99.90;;;;;;4991757;28;20018;-86
2023/07/22 03:57:10;;;;;;;5.10;3.08;;;17.30;99.90;;;;;;4991491;28;20110;-86
2023/07/22 03:59:35;;;;;;;7.75;2.85;;;17.40;99.90;;;;;;4990149;28;20109;-85
2023/07/22 04:02:02;;;;;;;8.73;3.05;;;17.50;99.90;;;;;;4989772;28;20038;-85
2023/07/22 04:04:28;;;;;;;10.90;3.38;;;17.50;99.90;;;;;;4990558;28;20574;-85
2023/07/22 04:06:53;;;;;;;7.43;2.85;;;17.60;99.90;;;;;;4990876;28;20022;-85
2023/07/22 04:09:19;;;;;;;3.35;2.00;;;17.70;99.90;;;;;;4991438;28;20514;-85
2023/07/22 04:11:44;;;;;;;7.30;1.95;;;17.80;99.90;;;;;;4990007;28;20512;-85
2023/07/22 04:14:12;;;;;;;4.65;2.15;;;18.00;99.90;;;;;;4989576;28;20553;-85
2023/07/22 04:16:38;;;;;;;6.32;2.38;;;18.10;99.90;;;;;;4990714;28;20075;-85
2023/07/22 04:19:04;;;;;;;8.50;3.42;;;18.20;99.90;;;;;;4990745;28;20026;-85
2023/07/22 04:21:29;;;;;;;6.55;2.97;;;18.20;99.90;;;;;;4990494;28;20027;-84
2023/07/22 04:23:55;;;;;;;7.45;3.05;;;18.20;99.90;;;;;;4990404;28;20030;-85
2023/07/22 04:26:21;;;;;;;8.85;2.22;;;18.20;99.90;;;;;;4990080;28;20045;-84
2023/07/22 04:28:46;;;;;;;12.75;2.65;;;18.20;99.90;;;;;;4989451;28;20061;-84
2023/07/22 04:31:12;;;;;;;10.10;2.83;;;18.40;99.90;;;;;;4988986;28;20038;-84
2023/07/22 04:33:38;;;;;;;14.50;3.20;;;18.60;99.90;;;;;;4989268;28;20018;-84
2023/07/22 04:36:03;;;;;;;5.60;2.85;;;18.70;99.90;;;;;;4989490;28;20472;-85
2023/07/22 04:38:29;;;;;;;8.57;2.55;;;18.80;99.90;;;;;;4989956;28;20030;-83
2023/07/22 04:40:55;;;;;;;9.68;2.20;;;18.80;99.90;;;;;;4989022;28;20058;-85
2023/07/22 04:43:24;;;;;;;3.60;2.17;;;18.90;99.90;;;;;;4990090;28;20053;-86
2023/07/22 04:45:50;;;;;;;6.95;2.13;;;18.90;99.90;;;;;;4988924;28;20026;-84
2023/07/22 04:48:17;;;;;;;3.33;2.10;;;19.00;99.90;;;;;;4989277;28;20395;-85
2023/07/22 04:50:46;;;;;;;7.00;2.03;;;19.00;99.90;;;;;;4989892;28;20042;-83
2023/07/22 04:53:15;;;;;;;2.97;1.65;;;19.10;99.90;;;;;;4990529;28;20027;-83
2023/07/22 04:55:41;;;;;;;4.63;2.17;;;19.20;99.90;;;;;;4989850;28;20034;-83
2023/07/22 04:58:09;;;;;;;13.23;2.92;;;19.40;99.90;;;;;;4988805;28;20022;-83
2023/07/22 05:00:34;;;;;;;6.18;1.88;;;19.40;99.90;;;;;;4989957;28;20018;-82
2023/07/22 05:03:00;;;;;;;9.32;2.00;;;19.50;99.90;;;;;;4989924;28;20033;-84
2023/07/22 05:05:26;;;;;;;3.72;2.08;;;19.60;99.90;;;;;;4989152;28;20540;-84
2023/07/22 05:07:52;;;;;;;2.78;1.73;;;19.60;99.90;;;;;;4988826;28;20034;-84
2023/07/22 05:10:19;;;;;;;5.03;2.28;;;19.70;99.90;;;;;;4989245;28;20037;-83
2023/07/22 05:12:44;;;;;;;3.33;2.22;;;19.70;99.90;;;;;;4989573;28;20414;-83
2023/07/22 05:15:11;;;;;;;7.53;2.33;;;19.80;99.90;;;;;;4988226;28;20031;-81
2023/07/22 05:17:37;;;;;;;5.63;2.50;;;19.90;99.90;;;;;;4988932;28;20033;-82
2023/07/22 05:20:06;;;;;;;9.75;2.78;;;19.90;99.90;;;;;;4988298;28;20109;-79
2023/07/22 05:22:32;;;;;;;4.50;2.08;;;20.10;99.90;;;;;;4988438;28;20536;-81
2023/07/22 05:24:58;;;;;;;5.93;1.98;;;20.20;99.90;;;;;;4989564;28;20406;-82
2023/07/22 05:27:25;;;;;;;5.65;3.00;;;20.40;99.90;;;;;;4989749;28;20027;-81
2023/07/22 05:29:50;;;;;;;4.07;2.38;;;20.60;99.90;;;;;;4988223;28;20068;-84
2023/07/22 05:32:16;;;;;;;7.50;2.78;;;20.60;99.90;;;;;;4989472;28;20054;-84
2023/07/22 05:34:42;;;;;;;6.68;2.67;;;20.70;99.90;;;;;;4988083;28;20395;-80
2023/07/22 05:37:07;;;;;;;6.65;2.50;;;20.70;99.90;;;;;;4989851;28;20033;-81
2023/07/22 05:39:33;;;;;;;4.20;2.75;;;20.90;99.90;;;;;;4988976;28;20026;-82
2023/07/22 05:41:58;;;;;;;7.32;2.75;;;21.10;99.90;;;;;;4989947;28;20494;-81
2023/07/22 05:44:24;;;;;;;8.95;2.55;;;21.10;99.90;;;;;;4988723;28;20371;-82
2023/07/22 05:46:50;;;;;;;7.30;2.42;;;21.10;99.90;;;;;;4987475;28;20057;-81
2023/07/22 05:49:15;;;;;;;4.97;2.85;;;21.10;99.90;;;;;;4986606;28;20117;-82
2023/07/22 05:51:41;;;;;;;8.18;3.10;;;21.20;99.90;;;;;;4988434;28;20107;-80
2023/07/22 05:54:07;;;;;;;6.90;3.22;;;21.20;99.90;;;;;;4988070;28;20027;-83
2023/07/22 05:56:32;;;;;;;5.55;2.95;;;21.40;99.90;;;;;;4987895;28;20477;-84
2023/07/22 05:58:58;;;;;;;6.97;2.78;;;21.50;99.90;;;;;;4987402;28;20045;-85
2023/07/22 06:01:24;;;;;;;8.88;3.17;;;21.80;99.90;;;;;;4988702;28;20122;-83
2023/07/22 06:03:50;;;;;;;5.15;3.30;;;22.30;99.90;;;;;;4987165;28;20367;-84
2023/07/22 06:06:16;;;;;;;12.65;4.03;;;23.20;99.90;;;;;;4988049;28;20030;-81
2023/07/22 06:08:42;;;;;;;4.60;2.58;;;24.40;99.90;;;;;;4988786;28;20030;-84
2023/07/22 06:11:08;;;;;;;8.77;3.33;;;25.60;99.90;;;;;;4989199;28;20095;-85
2023/07/22 06:13:33;;;;;;;8.35;3.15;;;26.60;99.90;;;;;;4988366;28;20079;-84
2023/07/22 06:15:59;;;;;;;7.40;2.85;;;27.30;99.90;;;;;;4987905;28;20420;-82
2023/07/22 06:18:25;;;;;;;6.80;3.38;;;28.20;99.90;;;;;;4988420;28;20030;-82
2023/07/22 06:20:51;;;;;;;6.22;2.97;;;29.10;95.50;;;;;;4989157;28;20144;-84
2023/07/22 06:23:16;;;;;;;6.78;2.70;;;29.50;91.90;;;;;;4988830;28;20038;-84
2023/07/22 06:25:42;;;;;;;3.83;2.60;;;30.00;87.40;;;;;;4989036;28;20111;-84
2023/07/22 06:28:08;;;;;;;7.50;3.35;;;30.50;81.60;;;;;;4988893;28;20109;-84
2023/07/22 06:30:34;;;;;;;6.50;2.88;;;30.80;77.40;;;;;;4988672;28;20026;-82
2023/07/22 06:33:00;;;;;;;6.45;2.22;;;31.10;75.20;;;;;;4987599;28;20041;-81
2023/07/22 06:35:25;;;;;;;4.07;2.50;;;31.30;71.30;;;;;;4987493;28;20054;-83
2023/07/22 06:37:51;;;;;;;4.15;3.00;;;31.40;70.80;;;;;;4988785;28;20105;-82
2023/07/22 06:40:17;;;;;;;6.70;3.03;;;31.50;68.70;;;;;;4988856;28;20074;-82
2023/07/22 06:42:43;;;;;;;9.32;2.95;;;31.70;67.40;;;;;;4988596;28;20042;-82
2023/07/22 06:45:09;;;;;;;4.95;2.55;;;32.10;65.10;;;;;;4988556;28;20023;-83
2023/07/22 06:47:36;;;;;;;4.78;3.03;;;32.00;65.60;;;;;;4989042;28;20376;-81
2023/07/22 06:50:02;;;;;;;7.80;2.65;;;32.20;62.30;;;;;;4987246;28;20077;-82
2023/07/22 06:52:28;;;;;;;4.32;3.30;;;32.30;62.30;;;;;;4988069;28;20041;-82
2023/07/22 06:54:54;;;;;;;5.50;2.97;;;32.30;61.30;;;;;;4988205;28;20097;-81
2023/07/22 06:57:19;;;;;;;5.80;2.90;;;32.40;61.40;;;;;;4987319;28;20046;-82
2023/07/22 06:59:45;;;;;;;10.40;3.22;;;32.30;60.80;;;;;;4988443;28;20574;-82
2023/07/22 07:02:11;;;;;;;9.23;2.97;;;32.30;61.30;;;;;;4988689;28;20041;-84
2023/07/22 07:04:36;;;;;;;9.20;2.85;;;32.50;61.50;;;;;;4988834;28;20048;-85
2023/07/22 07:07:02;;;;;;;4.57;2.80;;;32.50;61.10;;;;;;4988759;28;20390;-82
2023/07/22 07:09:28;;;;;;;7.38;3.13;;;32.60;60.20;;;;;;4987431;28;20033;-84
2023/07/22 07:11:56;;;;;;;5.82;2.70;;;32.60;59.20;;;;;;4988285;28;20406;-84
2023/07/22 07:14:23;;;;;;;5.97;2.85;;;32.50;59.60;;;;;;4988822;28;20019;-85
2023/07/22 07:16:49;;;;;;;7.70;3.30;;;32.20;61.70;;;;;;4987072;28;20191;-85
2023/07/22 07:19:15;;;;;;;4.15;2.40;;;32.40;60.70;;;;;;4986102;28;20450;-84
2023/07/22 07:21:40;;;;;;;4.95;3.22;;;32.70;59.90;;;;;;4987456;28;20422;-83
2023/07/22 07:24:06;;;;;;;3.95;3.22;;;32.90;60.50;;;;;;4987248;28;20509;-83
2023/07/22 07:26:32;;;;;;;4.43;3.58;;;32.90;59.90;;;;;;4987587;28;20037;-84
2023/07/22 07:28:57;;;;;;;5.20;2.30;;;32.80;61.50;;;;;;4987755;28;20081;-83
2023/07/22 07:31:23;;;;;;;5.18;3.13;;;32.80;61.40;;;;;;4985873;28;20418;-84
2023/07/22 07:33:49;;;;;;;3.35;2.50;;;32.80;59.20;;;;;;4986319;28;20054;-84
2023/07/22 07:36:14;;;;;;;7.70;3.55;;;32.70;59.00;;;;;;4987587;28;20034;-85
2023/07/22 07:38:40;;;;;;;6.78;3.20;;;32.40;62.20;;;;;;4989495;28;20042;-84
2023/07/22 07:41:11;;;;;;;8.13;3.72;;;32.70;62.00;;;;;;4990933;28;20089;-84
2023/07/22 07:43:40;;;;;;;5.85;3.53;;;33.10;60.70;;;;;;4989225;28;20494;-85
2023/07/22 07:46:18;;;;;;;4.20;3.35;;;32.90;59.10;;;;;;4989615;28;20026;-83
2023/07/22 07:48:45;;;;;;;6.65;3.67;;;32.70;60.20;;;;;;4990855;28;20030;-84
2023/07/22 07:51:13;;;;;;;5.22;3.13;;;32.40;61.20;;;;;;4989525;28;20087;-85
2023/07/22 07:53:39;;;;;;;7.85;3.42;;;32.30;63.00;;;;;;4990708;28;20405;-84
2023/07/22 07:56:05;;;;;;;8.50;3.50;;;32.40;61.90;;;;;;4989522;28;20026;-84
2023/07/22 07:58:30;;;;;;;5.88;2.97;;;32.50;61.10;;;;;;4989286;28;20034;-84
2023/07/22 08:00:56;;;;;;;8.93;3.10;;;32.50;61.50;;;;;;4990495;28;20102;-84
2023/07/22 08:03:22;;;;;;;5.00;3.58;;;32.70;60.40;;;;;;4990412;28;20129;-84
2023/07/22 08:05:47;;;;;;;5.95;3.40;;;32.90;60.60;;;;;;4989436;28;20478;-84
2023/07/22 08:08:13;;;;;;;4.53;2.90;;;32.90;61.30;;;;;;4989581;28;20390;-85
2023/07/22 08:10:39;;;;;;;11.57;4.13;;;33.10;59.50;;;;;;4988831;28;20034;-83
2023/07/22 08:13:04;;;;;;;5.22;3.33;;;33.40;58.30;;;;;;4990176;28;20101;-83
2023/07/22 08:15:30;;;;;;;9.40;3.75;;;33.30;58.70;;;;;;4988736;28;20031;-84
2023/07/22 08:17:55;;;;;;;3.85;2.55;;;33.30;59.80;;;;;;4989063;28;20816;-83
2023/07/22 08:20:21;;;;;;;6.47;2.83;;;33.50;59.00;;;;;;4988811;28;20041;-84
2023/07/22 08:22:47;;;;;;;6.00;2.67;;;33.80;55.70;;;;;;4990493;28;20023;-84
2023/07/22 08:25:13;;;;;;;4.15;2.17;;;34.20;54.00;;;;;;4988996;28;20026;-84
2023/07/22 08:27:39;;;;;;;3.47;2.00;;;34.10;49.90;;;;;;4988939;28;20498;-84
2023/07/22 08:30:05;;;;;;;2.78;2.03;;;33.90;50.00;;;;;;4990074;28;20073;-85
2023/07/22 08:32:31;;;;;;;5.68;2.47;;;33.70;49.80;;;;;;4989664;28;20042;-84
2023/07/22 08:34:56;;;;;;;3.80;2.42;;;33.90;50.00;;;;;;4989097;28;20547;-85
2023/07/22 08:37:22;;;;;;;3.00;2.30;;;33.80;50.00;;;;;;4988375;28;20052;-84
2023/07/22 08:39:47;;;;;;;5.15;2.35;;;34.00;51.10;;;;;;4989777;28;20034;-84
2023/07/22 08:42:17;;;;;;;5.57;2.78;;;34.20;51.20;;;;;;4989541;28;20060;-84
2023/07/22 08:44:48;;;;;;;6.78;3.28;;;34.40;52.00;;;;;;4989628;28;20027;-85
2023/07/22 08:47:16;;;;;;;4.00;2.90;;;34.30;51.70;;;;;;4989495;28;20034;-83
2023/07/22 08:49:48;;;;;;;8.60;3.03;;;34.30;52.50;;;;;;4989535;28;20027;-85
2023/07/22 08:52:15;;;;;;;5.80;3.00;;;34.40;52.40;;;;;;4989551;28;20026;-84
2023/07/22 08:54:42;;;;;;;8.40;3.08;;;33.80;53.50;;;;;;4989482;28;20026;-81
2023/07/22 08:57:10;;;;;;;8.30;3.42;;;33.70;54.70;;;;;;4989486;28;20035;-81
2023/07/22 08:59:37;;;;;;;6.95;2.95;;;33.40;54.10;;;;;;4988796;28;20498;-82
2023/07/22 09:02:03;;;;;;;3.30;2.63;;;33.00;54.10;;;;;;4989743;28;20027;-82
2023/07/22 09:04:29;;;;;;;4.25;2.78;;;33.00;54.70;;;;;;4989865;28;20031;-82
2023/07/22 09:06:56;;;;;;;4.80;3.28;;;33.30;56.10;;;;;;4988836;28;20490;-83
2023/07/22 09:09:22;;;;;;;7.40;3.40;;;33.40;56.70;;;;;;4988732;28;20038;-82
2023/07/22 09:11:49;;;;;;;3.78;2.30;;;33.40;57.50;;;;;;4989424;28;20441;-82
2023/07/22 09:14:18;;;;;;;8.20;2.72;;;33.60;55.00;;;;;;4989636;28;20023;-81
2023/07/22 09:16:44;;;;;;;5.72;3.22;;;33.60;54.40;;;;;;4989706;28;20137;-82
2023/07/22 09:19:09;;;;;;;4.30;2.33;;;33.40;55.80;;;;;;4988595;28;20736;-82
2023/07/22 09:21:38;;;;;;;4.43;1.70;;;33.50;54.70;;;;;;4989609;28;20111;-83
2023/07/22 09:24:23;;;;;;;3.80;1.70;;;33.20;46.90;;;;;;4989001;28;20034;-81
2023/07/22 09:26:49;;;;;;;2.53;1.73;;;33.00;48.20;;;;;;4990384;28;20027;-83
2023/07/22 09:29:15;;;;;;;2.65;1.55;;;33.00;47.50;;;;;;4990520;28;20069;-82
2023/07/22 09:31:52;;;;;;;4.28;1.60;;;33.10;47.40;;;;;;4988603;28;20058;-83
2023/07/22 09:34:18;;;;;;;3.22;1.70;;;33.20;48.30;;;;;;4989742;28;20043;-82
2023/07/22 09:36:57;;;;;;;6.05;2.03;;;33.30;48.70;;;;;;4988551;28;20064;-82
2023/07/22 09:39:24;;;;;;;2.40;1.73;;;33.20;48.00;;;;;;4988369;28;20041;-82
2023/07/22 09:41:52;;;;;;;2.67;1.85;;;33.50;48.70;;;;;;4988202;28;20107;-81
2023/07/22 09:44:18;;;;;;;4.15;1.77;;;33.80;48.60;;;;;;4989323;28;20106;-81
2023/07/22 09:46:48;;;;;;;2.75;2.05;;;34.00;48.80;;;;;;4989411;28;20502;-82
2023/07/22 09:49:16;;;;;;;3.33;2.47;;;33.90;48.60;;;;;;4989620;28;20050;-83
2023/07/22 09:51:42;;;;;;;4.10;2.50;;;34.10;49.20;;;;;;4989097;28;20031;-82
2023/07/22 09:54:08;;;;;;;4.18;2.33;;;34.10;49.80;;;;;;4987711;28;20402;-82
2023/07/22 09:56:44;;;;;;;3.35;2.03;;;34.10;49.70;;;;;;4988284;28;20036;-83
2023/07/22 09:59:10;;;;;;;2.55;1.90;;;34.20;48.80;;;;;;4989078;28;20137;-82
2023/07/22 10:01:39;;;;;;;4.60;2.00;;;34.20;49.20;;;;;;4988676;28;20444;-81
2023/07/22 10:04:05;;;;;;;2.72;1.85;;;34.40;48.30;;;;;;4989120;28;20030;-82
2023/07/22 10:06:32;;;;;;;6.53;2.40;;;34.30;47.80;;;;;;4988784;28;20502;-82
2023/07/22 10:09:07;;;;;;;5.18;2.88;;;34.20;49.40;;;;;;4989151;28;20026;-84
2023/07/22 10:11:34;;;;;;;3.15;2.10;;;33.70;49.80;;;;;;4987976;28;20483;-85
2023/07/22 10:14:01;;;;;;;4.68;3.35;;;33.40;49.90;;;;;;4989264;28;20120;-82
2023/07/22 10:16:28;;;;;;;7.90;2.25;;;32.80;51.70;;;;;;4987786;28;20184;-82
2023/07/22 10:18:55;;;;;;;3.70;2.17;;;32.40;53.00;;;;;;4989202;28;20035;-82
2023/07/22 10:21:22;;;;;;;3.55;2.08;;;32.00;54.20;;;;;;4988793;28;20083;-82
2023/07/22 10:23:48;;;;;;;4.05;2.50;;;31.70;55.20;;;;;;4989017;28;20122;-82
2023/07/22 10:26:18;;;;;;;3.85;2.60;;;31.30;56.50;;;;;;4988567;28;20371;-83
2023/07/22 10:28:47;;;;;;;6.38;2.67;;;31.00;57.10;;;;;;4988454;28;20037;-84
2023/07/22 10:31:18;;;;;;;3.00;2.20;;;30.70;55.90;;;;;;4988705;28;20042;-84
2023/07/22 10:33:46;;;;;;;3.38;1.98;;;30.30;56.70;;;;;;4987750;28;20399;-83
2023/07/22 10:36:16;;;;;;;3.72;2.08;;;30.10;56.70;;;;;;4988503;28;20762;-83
2023/07/22 10:38:42;;;;;;;3.45;1.92;;;29.90;57.40;;;;;;4988191;28;20030;-83
2023/07/22 10:41:19;;;;;;;11.68;2.28;;;29.70;57.80;;;;;;4988417;28;20133;-83
2023/07/22 10:43:58;;;;;;;3.92;2.30;;;29.60;57.20;;;;;;4988485;28;20026;-83
2023/07/22 10:46:43;;;;;;;4.80;1.92;;;29.40;61.70;;;;;;4988478;28;20105;-83
2023/07/22 10:49:13;;;;;;;6.10;2.15;;;29.40;59.50;;;;;;4987449;28;20079;-83
2023/07/22 10:51:39;;;;;;;7.30;2.10;;;29.30;59.20;;;;;;4988450;28;20039;-84
2023/07/22 10:54:13;;;;;;;4.50;2.70;;;29.10;59.90;;;;;;4988559;28;20026;-83
2023/07/22 10:56:42;;;;;;;3.15;2.17;;;28.90;63.10;;;;;;4987414;28;20037;-83
2023/07/22 10:59:11;;;;;;;14.50;2.42;;;28.90;64.70;;;;;;4988664;28;20033;-84
2023/07/22 11:01:38;;;;;;;2.95;1.70;;;28.80;66.60;;;;;;4986513;28;20027;-83
2023/07/22 11:04:30;;;;;;;3.30;2.20;;;28.70;64.50;;;;;;4986472;28;20083;-84
2023/07/22 11:06:58;;;;;;;3.40;1.92;;;28.60;63.20;;;;;;4987254;28;20037;-84
2023/07/22 11:09:27;;;;;;;5.88;2.22;;;28.50;59.80;;;;;;4987232;28;20113;-84
2023/07/22 11:11:54;;;;;;;5.47;1.67;;;28.50;63.60;;;;;;4986511;28;20035;-84
2023/07/22 11:14:24;;;;;;;3.78;1.73;;;28.50;60.90;;;;;;4991137;28;20087;-82
2023/07/22 11:16:50;;;;;;;4.50;2.15;;;28.50;62.30;;;;;;4991973;28;20034;-83
2023/07/22 11:19:18;;;;;;;5.97;2.10;;;28.50;60.40;;;;;;4991334;28;20022;-84
2023/07/22 11:21:45;;;;;;;4.53;1.80;;;28.50;58.50;;;;;;4991130;28;20030;-82
2023/07/22 11:24:11;;;;;;;3.80;1.85;;;28.40;59.00;;;;;;4991187;28;20030;-81
2023/07/22 11:26:39;;;;;;;4.82;1.92;;;28.40;59.70;;;;;;4990520;28;20030;-82
2023/07/22 11:29:06;;;;;;;6.45;2.28;;;28.30;61.70;;;;;;4992059;28;20534;-82
2023/07/22 11:31:36;;;;;;;8.52;1.90;;;28.20;63.90;;;;;;4990450;28;20379;-84
2023/07/22 11:34:05;;;;;;;4.32;2.10;;;28.20;65.70;;;;;;4992183;28;20083;-82
2023/07/22 11:36:31;;;;;;;3.75;1.70;;;28.20;64.00;;;;;;4990622;28;20490;-82
2023/07/22 11:39:05;;;;;;;3.05;1.70;;;28.20;61.70;;;;;;4991869;28;20031;-81
2023/07/22 11:41:31;;;;;;;7.70;1.80;;;28.30;58.80;;;;;;4991829;28;20510;-81
2023/07/22 11:43:58;;;;;;;2.55;1.63;;;28.30;58.00;;;;;;4991785;28;20513;-82
2023/07/22 11:46:25;;;;;;;5.85;1.67;;;28.40;55.70;;;;;;4991869;28;20514;-81
2023/07/22 11:48:52;;;;;;;2.58;1.35;;;28.30;55.70;;;;;;4991808;28;20028;-81
2023/07/22 11:51:20;;;;;;;4.20;1.27;;;28.20;54.00;;;;;;4991419;28;20049;-81
2023/07/22 11:53:50;;;;;;;2.45;1.58;;;28.10;55.00;;;;;;4990740;28;20398;-81
2023/07/22 11:56:24;;;;;;;4.03;2.00;;;28.10;55.50;;;;;;4990482;28;20050;-82
2023/07/22 11:58:56;;;;;;;2.78;1.80;;;28.10;55.40;;;;;;4991323;28;20038;-81
2023/07/22 12:01:23;;;;;;;5.45;1.80;;;28.10;53.80;;;;;;4991357;28;20019;-82
2023/07/22 12:03:49;;;;;;;7.40;1.70;;;28.00;53.10;;;;;;4991486;28;20031;-81
2023/07/22 12:06:16;;;;;;;3.63;1.85;;;28.00;52.10;;;;;;4991228;28;20034;-81
2023/07/22 12:08:47;;;;;;;4.50;1.85;;;28.00;53.90;;;;;;4990448;28;20073;-81
2023/07/22 12:11:18;;;;;;;5.65;1.70;;;28.10;52.00;;;;;;4991396;28;20045;-82
2023/07/22 12:13:46;;;;;;;2.63;1.63;;;28.20;50.90;;;;;;4990897;28;20027;-82
2023/07/22 12:16:12;;;;;;;2.40;1.17;;;28.20;50.10;;;;;;4991071;28;20029;-82
2023/07/22 12:18:44;;;;;;;2.83;1.52;;;28.20;49.40;;;;;;4991510;28;20030;-81
2023/07/22 12:21:10;;;;;;;3.05;1.40;;;28.20;49.50;;;;;;4985921;28;20054;-81
2023/07/22 12:23:37;;;;;;;2.35;1.40;;;28.10;49.40;;;;;;4989614;28;20041;-82
2023/07/22 12:26:04;;;;;;;1.90;1.20;;;28.10;49.00;;;;;;4990882;28;20042;-81
2023/07/22 12:28:30;;;;;;;4.25;1.38;;;28.20;50.10;;;;;;4990974;28;20042;-82
2023/07/22 12:30:57;;;;;;;2.05;1.23;;;28.10;48.50;;;;;;4990722;28;20042;-82
2023/07/22 12:33:24;;;;;;;1.95;1.10;;;28.20;47.60;;;;;;4989713;28;20022;-82
2023/07/22 12:35:50;;;;;;;2.10;1.20;;;28.20;49.00;;;;;;4989446;28;20041;-83
2023/07/22 12:38:15;;;;;;;2.33;1.13;;;28.30;49.20;;;;;;4989551;28;20043;-83
2023/07/22 12:40:41;;;;;;;2.30;1.23;;;28.20;49.00;;;;;;4988798;28;20133;-83
2023/07/22 12:43:08;;;;;;;2.53;1.15;;;28.30;49.20;;;;;;4989167;28;20513;-82
2023/07/22 12:45:33;;;;;;;1.58;0.90;;;28.30;49.30;;;;;;4990580;28;20025;-83